Thursday, March 26, 2015
22:29 UTC
  |  Log In   |  Register Free
Airport Search:

Farmington Regional Airport
(KFAM)

Farmington Regional Airport Diagram
No Airport Diagram Available

FAA data valid effective March 05, 2015 - April 30, 2015 (unless otherwise noted).

 
 
 
 
 
 
 
 
 
 
 
 
 
 

Current Aviation Weather for Farmington Regional Airport (KFAM)

The most recent METAR observation for KFAM was updated at: 1409
METAR Summary (Translated METAR)
KFAM
251355Z AUTO 27005KT 7SM CLR 11/08 A3005 RMK AO1
KSAR
251355Z AUTO 30007KT 10SM OVC012 10/08 A3004 RMK AO2 T00970080
(41.7 nm NE from KFAM)
KSAR
251355Z AUTO 30007KT 10SM OVC012 10/08 A3004 RMK AO2 T00970080
(41.7 nm NE from KFAM)
TAF
No TAF information found within 50 nm of KFAM
  Airport Weather Conditions for KFAM

 Current Weather at FAM
48° F
Fair
North winds at 12.7 mph
FAM NOAA Radar

Pressure: 30.05 in
Humidity: 43%
Wind: from the North at 12.7 gusting to 17.3 MPH (11 gusting to 15 KT)
Dew Point: 26.6°F
Visibility: 10.00 mi


Airport Weather Forecast for KFAM

Translated METAR and TAF for KFAM
Translated METAR for KFAM (2228 UTC 26 March 2015)
found at http://aviationweather.gov/adds/metars/
 
METAR text: KFAM 262215Z AUTO 35009KT 10SM CLR 09/M02 A3005 RMK AO1
Conditions at: KFAM (FARMINGTON , MO, US) observed 2215 UTC 26 March 2015
Temperature: 9.0°C (48°F)
Dewpoint: -2.0°C (28°F) [RH = 46%]
Pressure (altimeter): 30.05 inches Hg (1017.7 mb)
Winds: from the N (350 degrees) at 10 MPH (9 knots; 4.7 m/s)
Visibility: 10 or more miles (16+ km)
Ceiling: at least 12,000 feet AGL
Clouds: sky clear below 12,000 feet AGL
Weather: automated observation with no human augmentation;
there may or may not be significant weather present at this time
Translated TAF for KFAM

There is no translated TAF available for this airport

Find All Airport Services Find A Hotel Find A Rental Car Find A Golf Course Find A Restaurant $100 Hamburger



FBO's on the Field
FBO Company Facility Photos Services Transportation Aviation Fuel Prices: Prices include tax
Catering Weather Repair Courtesy Rental Type 100LL JetA JetA+ MOGAS 8087
 
Farmington Regional Airport

This FBO has not yet been rated
FS:Shell
Last Updated: Mar-19
Login to update fuel prices
SS:
Contact Farmington Regional AirportMore FBO Information
 
Add another FBO Facility Photos Catering Weather Repair Courtesy Rental Type 100LL JetA JetA+ MOGAS 8087
Services Transportation Aviation Fuel Prices: Prices include tax


model-print
model-print
model-print
model-print